Time;durP1;ratioP1;P1;durP2;ratioP2;P2;SDS_P1;SDS_P2;PMS_P1;PMS_P2;Temp;Humidity;BMP_temperature;BMP_pressure;BME280_temperature;BME280_humidity;BME280_pressure;Samples;Min_cycle;Max_cycle;Signal;HPM_P1;HPM_P2
2024/02/26 00:00:46;;;;;;;12.70;8.20;;;24.00;46.50;;;;;;6102218;28;80320;-52
2024/02/26 00:03:47;;;;;;;11.95;7.25;;;24.00;46.60;;;;;;6102193;28;84038;-54
2024/02/26 00:06:50;;;;;;;13.85;8.43;;;24.00;46.60;;;;;;6102005;28;80723;-53
2024/02/26 00:09:50;;;;;;;14.30;8.00;;;24.00;46.60;;;;;;6101119;28;80719;-50
2024/02/26 00:12:51;;;;;;;12.68;7.93;;;24.00;46.50;;;;;;6101086;28;81006;-51
2024/02/26 00:15:51;;;;;;;14.20;8.60;;;24.00;46.60;;;;;;6101275;28;81621;-51
2024/02/26 00:18:52;;;;;;;13.82;8.23;;;24.00;46.50;;;;;;6101269;28;80922;-50
2024/02/26 00:21:55;;;;;;;15.20;8.50;;;24.00;46.50;;;;;;6099739;28;80559;-51
2024/02/26 00:24:56;;;;;;;14.68;8.25;;;23.90;46.50;;;;;;6098986;28;80523;-52
2024/02/26 00:27:57;;;;;;;13.68;8.38;;;24.00;46.60;;;;;;6100783;28;80565;-52
2024/02/26 00:30:58;;;;;;;13.15;8.52;;;23.90;46.60;;;;;;6099402;28;82754;-52
2024/02/26 00:33:59;;;;;;;12.18;7.70;;;23.90;46.40;;;;;;6100551;28;82453;-52
2024/02/26 00:36:59;;;;;;;14.52;7.93;;;23.90;46.50;;;;;;6098784;28;80988;-53
2024/02/26 00:40:00;;;;;;;13.18;8.48;;;23.90;46.20;;;;;;6097618;28;80749;-52
2024/02/26 00:43:00;;;;;;;13.45;8.73;;;23.90;46.20;;;;;;6094265;28;81359;-52
2024/02/26 00:46:02;;;;;;;11.13;7.75;;;23.90;46.30;;;;;;6097383;28;80893;-52
2024/02/26 00:49:02;;;;;;;12.30;7.47;;;23.90;46.60;;;;;;6098018;28;82643;-53
2024/02/26 00:52:03;;;;;;;12.13;7.70;;;23.90;46.60;;;;;;6094995;28;81215;-49
2024/02/26 00:55:03;;;;;;;11.70;7.63;;;23.90;46.80;;;;;;6086767;28;82959;-52
2024/02/26 00:58:04;;;;;;;15.40;8.48;;;23.90;46.70;;;;;;6096704;28;80554;-53
2024/02/26 01:01:04;;;;;;;12.13;7.47;;;23.90;46.20;;;;;;6100621;28;82917;-54
2024/02/26 01:04:05;;;;;;;12.45;7.75;;;23.90;46.20;;;;;;6101979;28;80482;-52
2024/02/26 01:07:06;;;;;;;11.88;7.55;;;23.90;46.60;;;;;;6094605;28;80984;-53
2024/02/26 01:10:06;;;;;;;12.55;7.90;;;23.90;46.40;;;;;;6099305;28;80962;-53
2024/02/26 01:13:07;;;;;;;12.75;7.00;;;23.80;46.30;;;;;;6091979;28;80447;-51
2024/02/26 01:16:08;;;;;;;12.45;7.28;;;23.80;46.70;;;;;;6096368;28;83097;-54
2024/02/26 01:19:08;;;;;;;13.55;8.32;;;23.80;46.40;;;;;;6095426;28;81612;-52
2024/02/26 01:22:09;;;;;;;10.90;7.22;;;23.90;46.50;;;;;;6092049;28;81870;-53
2024/02/26 01:25:10;;;;;;;13.43;8.30;;;23.90;46.70;;;;;;6094951;28;80795;-53
2024/02/26 01:28:10;;;;;;;12.52;8.00;;;23.80;46.40;;;;;;6094404;28;82481;-54
2024/02/26 01:31:11;;;;;;;13.38;8.15;;;23.90;46.70;;;;;;6095018;28;80679;-54
2024/02/26 01:34:11;;;;;;;12.05;7.35;;;23.90;46.50;;;;;;6093376;28;80404;-53
2024/02/26 01:37:12;;;;;;;14.70;8.57;;;23.80;47.00;;;;;;6098097;28;80466;-53
2024/02/26 01:40:17;;;;;;;12.32;8.45;;;23.90;46.40;;;;;;6086484;28;82148;-51
2024/02/26 01:43:18;;;;;;;14.68;8.98;;;23.80;46.30;;;;;;6079779;28;80221;-54
2024/02/26 01:46:18;;;;;;;14.38;9.07;;;23.80;46.50;;;;;;6083469;28;86938;-53
2024/02/26 01:49:19;;;;;;;13.95;9.10;;;23.90;46.50;;;;;;6096207;28;80392;-53
2024/02/26 01:52:19;;;;;;;14.85;9.07;;;23.80;46.20;;;;;;6087413;28;80068;-54
2024/02/26 01:55:20;;;;;;;13.77;8.63;;;23.80;46.30;;;;;;6107633;28;80232;-54
2024/02/26 01:58:20;;;;;;;12.30;8.07;;;23.80;46.10;;;;;;6093765;28;83500;-54
2024/02/26 02:01:21;;;;;;;13.65;8.52;;;23.80;46.20;;;;;;6093073;28;80311;-53
2024/02/26 02:04:21;;;;;;;13.93;8.52;;;23.90;46.10;;;;;;6090545;28;82053;-55
2024/02/26 02:07:22;;;;;;;14.88;9.20;;;23.90;46.10;;;;;;6090332;28;81453;-55
2024/02/26 02:10:25;;;;;;;14.07;8.73;;;23.80;45.90;;;;;;6090974;28;81262;-53
2024/02/26 02:13:25;;;;;;;13.95;8.63;;;23.80;45.90;;;;;;6106147;28;80465;-54
2024/02/26 02:16:26;;;;;;;14.80;8.85;;;23.80;45.90;;;;;;6105385;28;81172;-54
2024/02/26 02:19:26;;;;;;;15.70;8.98;;;23.90;45.80;;;;;;6100009;28;80429;-50
2024/02/26 02:22:27;;;;;;;12.07;7.88;;;23.90;45.90;;;;;;6105116;28;81431;-50
2024/02/26 02:25:27;;;;;;;13.23;8.45;;;23.80;45.80;;;;;;6102958;28;81892;-52
2024/02/26 02:28:28;;;;;;;14.65;9.25;;;23.80;45.70;;;;;;6096585;28;80579;-54
2024/02/26 02:31:28;;;;;;;13.95;9.70;;;23.90;45.70;;;;;;6092963;28;80687;-55
2024/02/26 02:34:29;;;;;;;13.82;8.15;;;23.80;45.60;;;;;;6106114;28;81032;-52
2024/02/26 02:37:30;;;;;;;13.45;8.65;;;23.80;45.70;;;;;;6087501;28;81505;-53
2024/02/26 02:40:30;;;;;;;11.93;7.63;;;23.80;45.60;;;;;;6082401;28;80919;-51
2024/02/26 02:43:31;;;;;;;14.02;8.75;;;23.80;45.60;;;;;;6089297;28;80975;-55
2024/02/26 02:46:33;;;;;;;15.15;8.98;;;23.80;45.70;;;;;;6083770;28;80859;-53
2024/02/26 02:49:33;;;;;;;14.82;8.88;;;23.80;45.50;;;;;;6084691;28;80743;-50
2024/02/26 02:52:34;;;;;;;13.45;8.43;;;23.80;45.60;;;;;;6094475;28;80306;-51
2024/02/26 02:55:35;;;;;;;11.95;7.90;;;23.80;45.50;;;;;;6106755;28;80741;-50
2024/02/26 02:58:35;;;;;;;13.57;8.60;;;23.80;45.50;;;;;;6106987;28;80498;-54
2024/02/26 03:01:36;;;;;;;11.50;7.57;;;23.80;46.20;;;;;;6093494;28;80626;-51
2024/02/26 03:04:36;;;;;;;14.32;8.13;;;23.70;45.60;;;;;;6090611;28;81138;-50
2024/02/26 03:07:37;;;;;;;12.30;8.07;;;23.80;45.90;;;;;;6084433;28;81810;-49
2024/02/26 03:10:37;;;;;;;10.90;7.38;;;23.70;45.90;;;;;;6106676;28;80996;-51
2024/02/26 03:13:38;;;;;;;12.57;8.05;;;23.70;46.10;;;;;;6085496;28;80382;-51
2024/02/26 03:16:38;;;;;;;13.02;7.97;;;23.80;45.90;;;;;;6083505;28;80728;-54
2024/02/26 03:19:39;;;;;;;11.80;7.78;;;23.80;45.80;;;;;;6083573;28;84955;-55
2024/02/26 03:22:39;;;;;;;14.82;7.78;;;23.80;45.70;;;;;;6084675;28;80652;-51
2024/02/26 03:25:40;;;;;;;12.52;8.38;;;23.80;45.60;;;;;;6083175;28;81595;-53
2024/02/26 03:28:40;;;;;;;10.90;7.55;;;23.80;45.60;;;;;;6082891;28;80335;-52
2024/02/26 03:31:41;;;;;;;13.48;7.57;;;23.80;45.60;;;;;;6094179;28;80170;-53
2024/02/26 03:34:41;;;;;;;10.82;7.32;;;23.80;45.70;;;;;;6083195;28;81192;-54
2024/02/26 03:37:42;;;;;;;9.98;6.97;;;23.80;46.00;;;;;;6081563;28;81228;-54
2024/02/26 03:40:43;;;;;;;12.90;7.43;;;23.80;46.00;;;;;;6093046;28;80401;-54
2024/02/26 03:43:45;;;;;;;11.38;6.95;;;23.80;46.00;;;;;;6083023;28;83849;-54
2024/02/26 03:46:45;;;;;;;8.95;6.95;;;23.80;45.70;;;;;;6083787;28;80616;-53
2024/02/26 03:49:46;;;;;;;13.30;6.95;;;23.80;45.70;;;;;;6082818;28;82709;-54
2024/02/26 03:52:46;;;;;;;12.95;7.55;;;23.70;45.70;;;;;;6083288;28;80899;-55
2024/02/26 03:55:47;;;;;;;15.50;8.10;;;23.80;45.40;;;;;;6082999;28;81177;-54
2024/02/26 03:58:47;;;;;;;11.57;7.20;;;23.80;45.50;;;;;;6081902;28;80779;-56
2024/02/26 04:01:48;;;;;;;12.93;7.25;;;23.80;45.40;;;;;;6085146;28;80926;-54
2024/02/26 04:04:49;;;;;;;12.18;7.50;;;23.80;45.70;;;;;;6092832;28;80908;-53
2024/02/26 04:07:49;;;;;;;10.43;7.07;;;23.80;45.40;;;;;;6101075;28;80669;-54
2024/02/26 04:10:50;;;;;;;9.98;6.63;;;23.70;45.40;;;;;;6093345;28;80145;-50
2024/02/26 04:13:52;;;;;;;11.00;7.05;;;23.60;45.50;;;;;;6104035;28;83105;-54
2024/02/26 04:16:54;;;;;;;12.27;7.45;;;23.70;45.10;;;;;;6100184;28;82285;-51
2024/02/26 04:19:54;;;;;;;12.75;7.32;;;23.70;45.00;;;;;;6094283;28;84356;-55
2024/02/26 04:22:55;;;;;;;12.15;7.38;;;23.70;45.40;;;;;;6093622;28;80255;-54
2024/02/26 04:25:56;;;;;;;11.63;7.22;;;23.70;45.20;;;;;;6094246;28;80701;-57
2024/02/26 04:28:56;;;;;;;14.63;8.40;;;23.70;45.10;;;;;;6094983;28;80799;-54
2024/02/26 04:31:57;;;;;;;19.00;9.02;;;23.80;44.60;;;;;;6098860;28;80393;-49
2024/02/26 04:34:57;;;;;;;16.85;9.10;;;23.80;44.60;;;;;;6097690;28;81482;-51
2024/02/26 04:37:58;;;;;;;15.18;8.45;;;23.80;44.60;;;;;;6083137;28;80958;-55
2024/02/26 04:40:58;;;;;;;18.35;8.70;;;23.80;44.40;;;;;;6081063;28;80233;-54
2024/02/26 04:43:58;;;;;;;17.58;8.73;;;23.90;44.30;;;;;;6082635;28;80394;-54
2024/02/26 04:47:01;;;;;;;12.82;8.20;;;23.90;44.20;;;;;;6082029;28;80632;-55
2024/02/26 04:50:02;;;;;;;13.27;8.18;;;23.90;44.10;;;;;;6082221;28;81349;-53
2024/02/26 04:53:02;;;;;;;17.17;8.88;;;23.90;44.10;;;;;;6082619;28;80937;-55
2024/02/26 04:56:03;;;;;;;15.23;8.48;;;23.90;43.90;;;;;;6082026;28;80981;-55
2024/02/26 04:59:03;;;;;;;15.43;8.70;;;24.00;43.60;;;;;;6082127;28;83985;-59
2024/02/26 05:02:04;;;;;;;16.23;8.25;;;24.00;43.40;;;;;;6102838;28;82057;-56
2024/02/26 05:05:05;;;;;;;14.70;8.10;;;24.00;43.30;;;;;;6105507;28;81034;-50
2024/02/26 05:08:05;;;;;;;14.60;8.45;;;24.00;43.30;;;;;;6103644;28;80502;-54
2024/02/26 05:11:06;;;;;;;12.90;7.93;;;24.00;43.20;;;;;;6098385;28;80608;-57
2024/02/26 05:14:06;;;;;;;14.57;8.65;;;24.00;43.20;;;;;;6086106;28;81044;-55
2024/02/26 05:17:07;;;;;;;12.38;7.88;;;24.10;43.30;;;;;;6095013;28;80680;-56
2024/02/26 05:20:07;;;;;;;13.02;7.55;;;24.10;43.20;;;;;;6084724;28;81718;-53
2024/02/26 05:23:08;;;;;;;15.93;8.00;;;24.10;43.30;;;;;;6098973;28;80273;-55
2024/02/26 05:26:08;;;;;;;14.52;8.32;;;24.10;43.30;;;;;;6099034;28;80759;-57
2024/02/26 05:29:09;;;;;;;14.10;7.38;;;24.10;43.80;;;;;;6097486;28;80972;-54
2024/02/26 05:32:09;;;;;;;12.48;6.88;;;24.10;44.20;;;;;;6099451;28;81416;-54
2024/02/26 05:35:10;;;;;;;13.55;6.70;;;24.10;44.50;;;;;;6098112;28;80469;-53
2024/02/26 05:38:11;;;;;;;14.88;6.55;;;24.10;44.30;;;;;;6091510;28;80907;-53
2024/02/26 05:41:11;;;;;;;11.43;6.07;;;24.10;44.30;;;;;;6103476;28;80983;-54
2024/02/26 05:44:12;;;;;;;12.65;7.75;;;24.10;44.70;;;;;;6102611;28;80362;-54
2024/02/26 05:47:13;;;;;;;17.20;7.30;;;24.20;44.50;;;;;;6102875;28;81202;-54
2024/02/26 05:50:15;;;;;;;14.15;7.07;;;24.10;44.50;;;;;;6102127;28;80450;-54
2024/02/26 05:53:15;;;;;;;11.35;6.78;;;24.10;44.80;;;;;;6102996;28;80534;-56
2024/02/26 05:56:16;;;;;;;11.90;6.55;;;24.10;45.10;;;;;;6101260;28;80544;-55
2024/02/26 05:59:16;;;;;;;14.32;6.47;;;24.10;45.40;;;;;;6089577;28;80587;-54
2024/02/26 06:02:17;;;;;;;11.52;6.43;;;24.10;45.30;;;;;;6080722;28;80566;-56
2024/02/26 06:05:18;;;;;;;10.77;6.75;;;24.20;45.50;;;;;;6096970;28;81862;-55
2024/02/26 06:08:18;;;;;;;11.75;6.63;;;24.20;45.30;;;;;;6099103;28;81525;-55
2024/02/26 06:11:19;;;;;;;11.55;6.15;;;24.20;45.10;;;;;;6101672;28;80537;-56
2024/02/26 06:14:20;;;;;;;10.98;5.97;;;24.10;45.00;;;;;;6100938;28;80413;-59
2024/02/26 06:17:20;;;;;;;11.60;6.50;;;24.10;44.90;;;;;;6100726;28;81213;-59
2024/02/26 06:20:21;;;;;;;13.73;6.88;;;24.10;44.90;;;;;;6095373;28;80730;-59
2024/02/26 06:23:22;;;;;;;13.70;6.85;;;24.00;44.90;;;;;;6097808;28;80824;-56
2024/02/26 06:26:22;;;;;;;10.45;6.30;;;24.00;44.80;;;;;;6099221;28;81480;-58
2024/02/26 06:29:23;;;;;;;12.07;6.90;;;24.10;45.30;;;;;;6099836;28;82606;-59
2024/02/26 06:32:23;;;;;;;12.07;7.32;;;24.00;44.40;;;;;;6103744;28;82550;-59
2024/02/26 06:35:24;;;;;;;14.85;7.57;;;24.10;44.40;;;;;;6096304;28;80391;-58
2024/02/26 06:38:24;;;;;;;12.85;8.13;;;24.00;44.40;;;;;;6101347;28;82938;-59
2024/02/26 06:41:27;;;;;;;12.38;7.32;;;24.00;44.60;;;;;;6098485;28;80637;-58
2024/02/26 06:44:31;;;;;;;11.65;7.53;;;24.00;44.80;;;;;;6094255;28;80902;-58
2024/02/26 06:47:32;;;;;;;14.38;7.50;;;23.90;44.70;;;;;;6101226;28;85030;-57
2024/02/26 06:50:32;;;;;;;14.00;7.68;;;23.90;44.70;;;;;;6100511;28;81408;-58
2024/02/26 06:53:33;;;;;;;15.90;7.80;;;24.00;44.80;;;;;;6102212;28;80612;-59
2024/02/26 06:56:33;;;;;;;10.52;6.95;;;24.00;45.10;;;;;;6102773;28;83166;-57
2024/02/26 06:59:34;;;;;;;12.23;8.07;;;24.00;44.90;;;;;;6091926;28;80780;-59
2024/02/26 07:02:34;;;;;;;11.93;7.50;;;24.00;44.60;;;;;;6093052;28;81248;-59
2024/02/26 07:05:35;;;;;;;12.57;7.95;;;24.00;44.50;;;;;;6104268;28;80931;-59
2024/02/26 07:08:36;;;;;;;14.15;7.70;;;24.00;44.30;;;;;;6104885;28;80202;-60
2024/02/26 07:11:36;;;;;;;14.95;7.95;;;24.00;44.20;;;;;;6103767;28;80637;-60
2024/02/26 07:14:37;;;;;;;10.60;7.10;;;24.00;44.20;;;;;;6093691;28;80658;-59
2024/02/26 07:17:41;;;;;;;12.32;7.32;;;23.90;44.50;;;;;;6088100;28;80818;-59
2024/02/26 07:20:42;;;;;;;13.23;8.20;;;23.90;44.70;;;;;;6089996;28;80172;-59
2024/02/26 07:23:42;;;;;;;17.13;8.20;;;23.90;44.70;;;;;;6096075;28;81545;-59
2024/02/26 07:26:43;;;;;;;12.50;8.27;;;23.90;45.50;;;;;;6088187;28;81744;-59
2024/02/26 07:29:43;;;;;;;16.35;8.93;;;23.90;46.10;;;;;;6087773;28;87855;-59
2024/02/26 07:32:44;;;;;;;12.63;7.65;;;23.90;46.80;;;;;;6103963;28;80233;-59
2024/02/26 07:35:45;;;;;;;13.82;8.13;;;23.90;47.20;;;;;;6088165;28;80321;-59
2024/02/26 07:38:45;;;;;;;12.32;7.68;;;23.90;47.20;;;;;;6098146;28;81379;-59
2024/02/26 07:41:49;;;;;;;10.88;7.13;;;23.90;47.90;;;;;;6105101;28;80497;-59
2024/02/26 07:44:50;;;;;;;13.45;7.75;;;24.00;48.20;;;;;;6099540;28;80839;-58
2024/02/26 07:47:51;;;;;;;11.40;7.13;;;23.90;48.00;;;;;;6105519;28;82502;-58
2024/02/26 07:50:52;;;;;;;9.68;6.68;;;24.00;48.30;;;;;;6083222;28;80392;-59
2024/02/26 07:53:52;;;;;;;12.63;7.30;;;23.90;48.20;;;;;;6103591;28;81545;-59
2024/02/26 07:56:53;;;;;;;11.95;8.30;;;24.00;48.20;;;;;;6086772;28;81774;-59
2024/02/26 07:59:53;;;;;;;13.05;8.20;;;24.00;48.20;;;;;;6097401;28;81796;-57
2024/02/26 08:02:54;;;;;;;12.88;7.28;;;24.00;48.30;;;;;;6093944;28;81466;-59
2024/02/26 08:05:55;;;;;;;11.88;7.25;;;23.90;48.50;;;;;;6091811;28;81017;-59
2024/02/26 08:08:55;;;;;;;12.50;7.45;;;23.90;48.60;;;;;;6100156;28;80513;-59
2024/02/26 08:11:56;;;;;;;10.93;7.40;;;23.90;48.70;;;;;;6098334;28;80640;-59
2024/02/26 08:14:58;;;;;;;12.73;7.78;;;23.90;48.70;;;;;;6097040;28;80330;-58
2024/02/26 08:17:58;;;;;;;11.43;6.88;;;24.00;48.70;;;;;;6099849;28;80432;-59
2024/02/26 08:20:59;;;;;;;10.88;7.47;;;24.00;48.70;;;;;;6106257;28;80281;-59
2024/02/26 08:23:59;;;;;;;12.20;6.65;;;24.00;48.70;;;;;;6093947;28;81236;-58
2024/02/26 08:27:00;;;;;;;13.52;7.20;;;24.10;48.60;;;;;;6092810;28;80678;-58
2024/02/26 08:30:01;;;;;;;12.15;7.28;;;24.10;48.50;;;;;;6106202;28;80841;-59
2024/02/26 08:33:02;;;;;;;12.00;7.43;;;24.20;48.30;;;;;;6098412;28;81886;-59
2024/02/26 08:36:02;;;;;;;12.52;7.90;;;24.20;48.20;;;;;;6094909;28;81631;-59
2024/02/26 08:39:03;;;;;;;9.93;6.80;;;24.20;48.30;;;;;;6086144;28;82903;-59
2024/02/26 08:42:04;;;;;;;10.48;7.13;;;24.20;48.60;;;;;;6100626;28;82403;-59
2024/02/26 08:45:05;;;;;;;10.43;7.00;;;24.20;48.60;;;;;;6083178;28;81445;-59
2024/02/26 08:48:06;;;;;;;8.95;6.40;;;24.20;48.30;;;;;;6091074;28;80357;-60
2024/02/26 08:51:06;;;;;;;10.50;6.65;;;24.20;48.80;;;;;;6085712;28;86717;-59
2024/02/26 08:54:07;;;;;;;9.73;6.95;;;24.10;48.80;;;;;;6099059;28;80759;-60
2024/02/26 08:57:07;;;;;;;11.40;6.47;;;24.30;48.80;;;;;;6101678;28;81814;-60
2024/02/26 09:00:08;;;;;;;8.55;5.82;;;24.30;48.50;;;;;;6095161;28;85247;-59
2024/02/26 09:03:09;;;;;;;9.90;6.40;;;24.40;48.50;;;;;;6102858;28;80480;-61
2024/02/26 09:06:10;;;;;;;9.57;6.30;;;24.40;48.50;;;;;;6104803;28;82443;-59
2024/02/26 09:09:11;;;;;;;10.40;5.90;;;24.40;48.60;;;;;;6104813;28;81052;-59
2024/02/26 09:12:11;;;;;;;10.93;6.68;;;24.40;48.70;;;;;;6105780;28;80701;-59
2024/02/26 09:15:12;;;;;;;9.45;6.13;;;24.50;48.90;;;;;;6104792;28;80951;-60
2024/02/26 09:18:14;;;;;;;16.92;7.68;;;24.50;49.60;;;;;;6097107;28;80833;-60
2024/02/26 09:21:16;;;;;;;12.90;7.22;;;24.40;48.90;;;;;;6104345;28;80540;-60
2024/02/26 09:24:16;;;;;;;13.18;7.70;;;24.40;46.90;;;;;;6104181;28;80691;-60
2024/02/26 09:27:17;;;;;;;11.80;7.25;;;24.40;45.90;;;;;;6105067;28;80867;-60
2024/02/26 09:30:18;;;;;;;14.18;7.55;;;24.30;46.80;;;;;;6102107;28;80884;-60
2024/02/26 09:33:19;;;;;;;11.20;6.95;;;24.20;46.10;;;;;;6103209;28;80169;-60
2024/02/26 09:36:19;;;;;;;12.45;6.85;;;24.10;46.50;;;;;;6093797;28;80249;-60
2024/02/26 09:39:21;;;;;;;10.60;7.10;;;24.10;46.50;;;;;;6080884;28;80813;-60
2024/02/26 09:42:22;;;;;;;12.75;6.90;;;24.00;45.90;;;;;;6086060;28;81597;-59
2024/02/26 09:45:22;;;;;;;10.68;6.50;;;24.00;46.70;;;;;;6099345;28;80530;-60
2024/02/26 09:48:23;;;;;;;9.88;6.72;;;23.80;46.80;;;;;;6086840;28;80345;-60
2024/02/26 09:51:24;;;;;;;13.98;6.68;;;23.80;45.90;;;;;;6104297;28;80891;-59
2024/02/26 09:54:28;;;;;;;9.55;5.97;;;23.70;46.40;;;;;;6104518;28;80385;-59
2024/02/26 09:57:28;;;;;;;10.02;5.38;;;23.80;45.40;;;;;;6102013;28;84120;-59
2024/02/26 10:00:30;;;;;;;10.93;6.28;;;23.70;44.70;;;;;;6093850;28;81301;-59
2024/02/26 10:03:30;;;;;;;9.77;5.05;;;23.80;45.00;;;;;;6100623;28;82466;-60
2024/02/26 10:06:31;;;;;;;10.30;5.10;;;23.80;45.30;;;;;;6104365;28;80954;-60
2024/02/26 10:09:31;;;;;;;8.10;4.50;;;23.90;44.40;;;;;;6107857;28;81538;-60
2024/02/26 10:12:32;;;;;;;10.00;5.50;;;23.90;44.40;;;;;;6107804;28;81122;-59
2024/02/26 10:15:32;;;;;;;7.50;4.30;;;23.90;44.10;;;;;;6107812;28;81332;-60
2024/02/26 10:18:33;;;;;;;6.15;3.42;;;23.90;44.10;;;;;;6085092;28;82960;-59
2024/02/26 10:21:34;;;;;;;8.02;3.95;;;23.90;44.00;;;;;;6093106;28;81711;-54
2024/02/26 10:24:34;;;;;;;6.53;4.10;;;24.00;45.40;;;;;;6088871;28;81350;-59
2024/02/26 10:27:35;;;;;;;5.72;3.28;;;24.00;44.60;;;;;;6104022;28;81710;-59
2024/02/26 10:30:35;;;;;;;6.07;2.90;;;24.10;44.90;;;;;;6093097;28;81031;-58
2024/02/26 10:33:36;;;;;;;5.22;3.20;;;24.20;45.00;;;;;;6105845;28;80606;-59
2024/02/26 10:36:36;;;;;;;4.15;2.75;;;24.30;45.70;;;;;;6086347;28;80586;-58
2024/02/26 10:39:37;;;;;;;7.05;3.00;;;24.40;45.10;;;;;;6106540;28;81946;-59
2024/02/26 10:42:38;;;;;;;3.90;2.47;;;24.40;44.90;;;;;;6107676;28;80295;-59
2024/02/26 10:45:41;;;;;;;4.55;2.75;;;24.50;44.90;;;;;;6094860;28;81208;-59
2024/02/26 10:48:42;;;;;;;3.65;2.60;;;24.60;45.00;;;;;;6099293;28;80591;-58
2024/02/26 10:51:42;;;;;;;3.92;2.60;;;24.60;44.50;;;;;;6095022;28;82071;-59
2024/02/26 10:54:44;;;;;;;3.83;2.58;;;24.70;44.60;;;;;;6097389;28;81270;-58
2024/02/26 10:57:45;;;;;;;8.43;2.80;;;24.80;44.40;;;;;;6085998;28;80988;-58
2024/02/26 11:00:46;;;;;;;4.45;2.78;;;24.90;44.60;;;;;;6085376;28;80714;-58
2024/02/26 11:03:47;;;;;;;5.88;2.75;;;24.90;44.20;;;;;;6092105;28;80443;-59
2024/02/26 11:06:47;;;;;;;3.53;2.55;;;25.00;44.20;;;;;;6087919;28;81366;-58
2024/02/26 11:09:52;;;;;;;4.32;2.72;;;25.10;43.90;;;;;;6098547;28;82537;-58
2024/02/26 11:12:52;;;;;;;4.32;2.83;;;25.20;43.90;;;;;;6088612;28;81928;-59
2024/02/26 11:15:54;;;;;;;4.28;2.60;;;25.20;43.90;;;;;;6106583;28;82545;-58
2024/02/26 11:18:55;;;;;;;4.32;2.42;;;25.30;43.40;;;;;;6106584;28;81229;-57
2024/02/26 11:21:56;;;;;;;3.08;2.38;;;25.30;43.60;;;;;;6096212;28;80348;-58
2024/02/26 11:24:57;;;;;;;5.30;3.08;;;25.40;43.30;;;;;;6094012;28;80326;-58
2024/02/26 11:27:58;;;;;;;5.05;2.33;;;25.40;42.90;;;;;;6106393;28;81934;-58
2024/02/26 11:30:59;;;;;;;7.45;2.80;;;25.30;43.30;;;;;;6099268;28;82799;-57
2024/02/26 11:33:59;;;;;;;6.32;2.42;;;25.30;43.40;;;;;;6100524;28;83775;-58
2024/02/26 11:37:07;;;;;;;4.65;2.45;;;25.10;43.40;;;;;;6098467;28;81080;-57
2024/02/26 11:40:08;;;;;;;6.13;2.70;;;25.10;43.60;;;;;;6088274;28;83270;-56
2024/02/26 11:43:08;;;;;;;4.55;2.60;;;25.00;43.50;;;;;;6107072;28;81863;-57
2024/02/26 11:46:09;;;;;;;4.55;2.72;;;25.00;43.50;;;;;;6105937;28;80482;-57
2024/02/26 11:49:09;;;;;;;3.08;2.58;;;25.00;43.50;;;;;;6103411;28;80924;-57
2024/02/26 11:52:10;;;;;;;3.20;1.95;;;25.10;43.30;;;;;;6097015;28;81128;-57
2024/02/26 11:55:10;;;;;;;2.17;1.95;;;25.10;43.40;;;;;;6096038;28;80415;-57
2024/02/26 11:58:11;;;;;;;3.13;2.17;;;25.00;43.60;;;;;;6089344;28;83891;-57
2024/02/26 12:01:11;;;;;;;2.63;2.22;;;24.90;43.90;;;;;;6100916;28;81200;-58
2024/02/26 12:04:12;;;;;;;2.40;2.10;;;24.90;44.10;;;;;;6097624;28;82600;-57
2024/02/26 12:07:12;;;;;;;3.83;2.10;;;24.80;44.30;;;;;;6106000;28;80564;-56
2024/02/26 12:10:13;;;;;;;3.72;2.13;;;24.80;44.20;;;;;;6095310;28;80432;-57
2024/02/26 12:13:13;;;;;;;3.28;2.47;;;24.80;44.10;;;;;;6094614;28;81083;-56
2024/02/26 12:16:14;;;;;;;3.22;2.38;;;24.90;44.10;;;;;;6100657;28;80462;-57
2024/02/26 12:19:14;;;;;;;3.60;2.20;;;24.90;43.80;;;;;;6102891;28;82989;-57
2024/02/26 12:22:15;;;;;;;2.35;1.85;;;24.90;43.90;;;;;;6105397;28;80308;-58
2024/02/26 12:25:16;;;;;;;4.07;2.55;;;25.00;44.00;;;;;;6103025;28;81541;-56
2024/02/26 12:28:16;;;;;;;4.57;2.65;;;25.00;44.10;;;;;;6105484;28;80717;-56
2024/02/26 12:31:17;;;;;;;2.40;1.90;;;25.00;44.30;;;;;;6103394;28;80950;-57
2024/02/26 12:34:17;;;;;;;3.08;2.42;;;24.90;44.20;;;;;;6105049;28;80957;-58
2024/02/26 12:37:18;;;;;;;2.90;2.10;;;24.90;44.20;;;;;;6091441;28;80857;-58
2024/02/26 12:40:18;;;;;;;3.47;2.15;;;24.90;44.50;;;;;;6095633;28;81389;-59
2024/02/26 12:43:19;;;;;;;3.65;2.40;;;24.80;44.10;;;;;;6097782;28;81953;-59
2024/02/26 12:46:19;;;;;;;2.45;1.95;;;24.80;44.10;;;;;;6093088;28;80557;-59
2024/02/26 12:49:20;;;;;;;3.03;1.90;;;24.80;44.10;;;;;;6097777;28;82497;-57
2024/02/26 12:52:21;;;;;;;2.83;2.28;;;24.70;44.10;;;;;;6095684;28;80556;-58
2024/02/26 12:55:22;;;;;;;2.78;2.03;;;24.60;44.20;;;;;;6092692;28;81278;-59
2024/02/26 12:58:27;;;;;;;2.38;2.15;;;24.60;44.40;;;;;;6107393;28;81497;-59
2024/02/26 13:01:28;;;;;;;2.72;2.35;;;24.50;44.30;;;;;;6103521;28;80752;-58
2024/02/26 13:04:28;;;;;;;4.05;2.95;;;24.40;44.20;;;;;;6092161;28;81160;-59
2024/02/26 13:07:29;;;;;;;2.88;2.50;;;24.40;44.20;;;;;;6105365;28;80128;-59
2024/02/26 13:10:29;;;;;;;4.93;2.70;;;24.40;44.20;;;;;;6093610;28;81788;-59
2024/02/26 13:13:31;;;;;;;3.90;2.45;;;24.40;44.10;;;;;;6092695;28;81326;-59
2024/02/26 13:16:33;;;;;;;6.75;2.67;;;24.40;44.20;;;;;;6093060;28;81074;-58
2024/02/26 13:19:33;;;;;;;4.88;3.35;;;24.40;44.20;;;;;;6090966;28;80514;-57
2024/02/26 13:22:35;;;;;;;3.40;3.00;;;24.40;44.20;;;;;;6103468;28;80567;-58
2024/02/26 13:25:35;;;;;;;4.38;3.10;;;24.30;44.10;;;;;;6103052;28;80278;-59
2024/02/26 13:28:36;;;;;;;3.85;3.25;;;24.30;44.20;;;;;;6101684;28;80695;-58
2024/02/26 13:31:37;;;;;;;4.95;3.28;;;24.20;44.20;;;;;;6094761;28;80663;-59
2024/02/26 13:34:37;;;;;;;4.88;3.25;;;24.20;44.20;;;;;;6083376;28;80568;-58
2024/02/26 13:37:38;;;;;;;4.63;3.42;;;24.20;44.30;;;;;;6084753;28;80919;-58
2024/02/26 13:40:41;;;;;;;3.88;3.47;;;24.10;44.20;;;;;;6092177;28;83072;-59
2024/02/26 13:43:41;;;;;;;4.82;3.10;;;24.10;44.40;;;;;;6095025;28;85133;-59
2024/02/26 13:46:42;;;;;;;5.18;3.88;;;24.10;44.40;;;;;;6088615;28;80240;-58
2024/02/26 13:49:43;;;;;;;4.75;3.42;;;24.00;44.40;;;;;;6098700;28;80819;-59
2024/02/26 13:52:43;;;;;;;4.32;3.58;;;24.00;44.50;;;;;;6098853;28;81256;-59
2024/02/26 13:55:44;;;;;;;4.45;3.53;;;24.00;44.50;;;;;;6108958;28;81820;-59
2024/02/26 13:58:44;;;;;;;6.10;3.75;;;24.00;44.50;;;;;;6107753;28;81276;-58
2024/02/26 14:01:45;;;;;;;5.63;4.15;;;24.00;44.50;;;;;;6106527;28;82617;-59
2024/02/26 14:04:45;;;;;;;6.55;5.07;;;23.90;44.50;;;;;;6108067;28;80900;-59
2024/02/26 14:07:46;;;;;;;6.18;4.05;;;23.80;44.50;;;;;;6108084;28;80240;-58
2024/02/26 14:10:46;;;;;;;6.72;4.40;;;23.90;44.60;;;;;;6107860;28;80532;-58
2024/02/26 14:13:47;;;;;;;8.13;5.15;;;23.80;44.60;;;;;;6109478;28;80970;-58
2024/02/26 14:16:48;;;;;;;7.25;5.07;;;23.80;44.70;;;;;;6108301;28;80634;-58
2024/02/26 14:19:48;;;;;;;6.82;4.80;;;23.80;44.70;;;;;;6107987;28;81240;-58
2024/02/26 14:22:49;;;;;;;6.47;5.10;;;23.80;44.70;;;;;;6090899;28;80691;-57
2024/02/26 14:25:49;;;;;;;9.70;6.40;;;23.80;44.70;;;;;;6081968;28;80502;-59
2024/02/26 14:28:50;;;;;;;6.68;5.30;;;23.80;44.80;;;;;;6096176;28;80233;-57
2024/02/26 14:31:50;;;;;;;7.10;5.35;;;23.80;44.70;;;;;;6095823;28;80657;-58
2024/02/26 14:34:51;;;;;;;8.27;5.88;;;23.80;44.70;;;;;;6108113;28;80232;-58
2024/02/26 14:37:51;;;;;;;6.93;5.88;;;23.70;44.70;;;;;;6092736;28;81132;-57
2024/02/26 14:40:52;;;;;;;10.65;6.45;;;23.70;44.80;;;;;;6108259;28;80847;-57
2024/02/26 14:43:52;;;;;;;8.25;6.25;;;23.70;44.80;;;;;;6102335;28;81794;-56
2024/02/26 14:46:53;;;;;;;10.27;6.75;;;23.60;44.90;;;;;;6085939;28;80334;-57
2024/02/26 14:49:53;;;;;;;9.45;6.75;;;23.60;45.00;;;;;;6087016;28;83334;-56
2024/02/26 14:52:54;;;;;;;8.75;6.40;;;23.60;45.00;;;;;;6095598;28;80691;-57
2024/02/26 14:55:55;;;;;;;9.95;7.10;;;23.50;45.00;;;;;;6098088;28;81079;-50
2024/02/26 14:58:55;;;;;;;12.40;6.90;;;23.50;45.10;;;;;;6095938;28;80462;-59
2024/02/26 15:01:56;;;;;;;10.48;7.55;;;23.50;45.20;;;;;;6102743;28;81141;-54
2024/02/26 15:04:56;;;;;;;9.25;7.07;;;23.50;45.30;;;;;;6106014;28;80410;-58
2024/02/26 15:07:58;;;;;;;11.35;7.45;;;23.50;45.50;;;;;;6105399;28;80652;-61
2024/02/26 15:10:59;;;;;;;9.98;7.30;;;23.40;45.50;;;;;;6090876;28;83800;-60
2024/02/26 15:13:59;;;;;;;12.10;7.85;;;23.40;45.50;;;;;;6099214;28;80429;-59
2024/02/26 15:17:00;;;;;;;9.88;7.60;;;23.40;45.60;;;;;;6107529;28;80362;-60
2024/02/26 15:20:01;;;;;;;12.10;7.35;;;23.40;45.70;;;;;;6100327;28;80496;-59
2024/02/26 15:23:01;;;;;;;9.90;7.57;;;23.40;45.70;;;;;;6103445;28;81405;-59
2024/02/26 15:26:03;;;;;;;13.77;7.88;;;23.40;45.80;;;;;;6100744;28;80483;-60
2024/02/26 15:29:04;;;;;;;15.32;8.45;;;23.40;45.80;;;;;;6104040;28;81813;-59
2024/02/26 15:32:04;;;;;;;11.93;7.38;;;23.40;45.80;;;;;;6102818;28;80415;-54